Time;durP1;ratioP1;P1;durP2;ratioP2;P2;SDS_P1;SDS_P2;PMS_P1;PMS_P2;Temp;Humidity;BMP_temperature;BMP_pressure;BME280_temperature;BME280_humidity;BME280_pressure;Samples;Min_cycle;Max_cycle;Signal;HPM_P1;HPM_P2
2021/05/22 03:07:54;;;;;;;;;;;;;;;;;;;;;
2021/05/22 05:12:35;;;;;;;1.43;1.10;;;23.20;50.40;;;;;;5943997;24;20375;-84
2021/05/22 05:15:11;;;;;;;1.63;1.00;;;23.20;50.40;;;;;;5933000;24;20393;-84
2021/05/22 05:27:40;;;;;;;1.93;1.03;;;23.30;50.30;;;;;;6114051;23;20405;-84
2021/05/22 05:30:10;;;;;;;1.50;1.17;;;23.30;50.30;;;;;;6091194;23;20452;-84
2021/05/22 05:36:04;;;;;;;1.10;0.90;;;23.30;50.30;;;;;;6171641;23;20355;-83
2021/05/22 05:54:54;;;;;;;3.10;1.00;;;23.30;50.30;;;;;;5998874;23;20392;-85
2021/05/22 06:04:26;;;;;;;1.50;0.80;;;23.30;50.20;;;;;;6053939;23;20414;-84
2021/05/22 06:07:13;;;;;;;1.40;0.93;;;23.30;50.30;;;;;;6053645;23;20386;-84
2021/05/22 06:10:09;;;;;;;1.20;0.90;;;23.30;50.30;;;;;;6051455;23;20889;-85
2021/05/22 06:12:36;;;;;;;1.17;0.90;;;23.30;50.20;;;;;;6018539;23;21511;-84
2021/05/22 06:15:29;;;;;;;1.57;1.00;;;23.30;50.20;;;;;;5999900;23;20385;-84
2021/05/22 06:18:09;;;;;;;1.13;0.83;;;23.30;50.10;;;;;;6110158;23;20378;-84
2021/05/22 06:20:50;;;;;;;1.07;0.70;;;23.30;50.10;;;;;;6110396;23;20384;-84
2021/05/22 06:23:45;;;;;;;1.07;0.97;;;23.40;50.20;;;;;;6108743;23;20426;-84
2021/05/22 06:36:16;;;;;;;2.00;1.20;;;23.30;50.10;;;;;;6250222;22;20376;-84
2021/05/22 06:38:42;;;;;;;2.03;0.90;;;23.30;50.10;;;;;;6290433;22;20384;-84
2021/05/22 06:48:29;;;;;;;1.53;1.07;;;23.20;49.90;;;;;;6080257;23;20375;-87
2021/05/22 06:50:56;;;;;;;1.73;1.23;;;23.40;50.00;;;;;;6079318;23;20378;-86
2021/05/22 06:53:30;;;;;;;5.93;1.70;;;23.40;49.80;;;;;;6077752;23;20378;-86
2021/05/22 06:56:20;;;;;;;1.83;0.83;;;23.30;49.50;;;;;;6078753;23;20429;-86
2021/05/22 06:59:04;;;;;;;;;;;;;;;;;;;;;
2021/05/22 07:01:36;;;;;;;3.47;1.10;;;23.30;49.50;;;;;;6057202;23;20410;-87
2021/05/22 07:04:11;;;;;;;2.70;1.30;;;23.30;49.50;;;;;;6076204;23;20434;-87
2021/05/22 07:07:10;;;;;;;;;;;;;;;;;;;;;
2021/05/22 07:10:21;;;;;;;1.53;1.07;;;23.30;49.60;;;;;;6080023;23;20413;-85
2021/05/22 07:12:52;;;;;;;2.40;1.10;;;23.30;49.60;;;;;;5915226;24;20505;-86
2021/05/22 07:19:00;;;;;;;1.70;1.20;;;23.30;49.80;;;;;;6078767;23;20419;-87
2021/05/22 08:03:11;;;;;;;2.07;1.10;;;23.20;49.90;;;;;;5917315;24;20438;-87
2021/05/22 08:13:02;;;;;;;1.97;1.00;;;23.30;50.00;;;;;;6023784;23;20397;-86
2021/05/22 08:25:57;;;;;;;1.60;1.27;;;23.30;50.00;;;;;;6052417;23;20420;-87
2021/05/22 08:28:38;;;;;;;3.67;1.30;;;23.30;50.00;;;;;;6085670;23;20378;-86
2021/05/22 08:31:18;;;;;;;;;;;;;;;;;;;;;
2021/05/22 08:33:48;;;;;;;1.60;1.10;;;23.30;50.00;;;;;;6142253;23;20428;-86
2021/05/22 08:36:16;;;;;;;2.27;1.10;;;23.40;50.00;;;;;;6171068;23;20417;-85
2021/05/22 08:38:43;;;;;;;1.40;1.00;;;23.40;50.00;;;;;;6175234;23;20387;-85
2021/05/22 08:41:09;;;;;;;4.40;1.23;;;23.40;49.90;;;;;;6175511;23;20732;-84
2021/05/22 08:43:35;;;;;;;2.43;1.20;;;23.40;49.80;;;;;;6175935;23;20430;-83
2021/05/22 08:46:01;;;;;;;4.80;1.90;;;23.40;49.80;;;;;;6200311;23;20417;-85
2021/05/22 08:48:29;;;;;;;1.63;1.00;;;23.40;49.80;;;;;;6174629;23;20443;-83
2021/05/22 08:50:58;;;;;;;2.83;1.00;;;23.40;49.80;;;;;;6200312;23;20429;-84
2021/05/22 08:53:24;;;;;;;3.23;1.60;;;23.40;49.80;;;;;;6200417;23;20386;-84
2021/05/22 08:55:50;;;;;;;6.70;1.97;;;23.40;49.70;;;;;;6175557;23;20379;-84
2021/05/22 08:59:04;;;;;;;1.70;1.07;;;23.40;49.60;;;;;;6186685;23;20378;-85
2021/05/22 09:01:37;;;;;;;2.40;1.13;;;23.60;49.50;;;;;;6329746;22;20235;-83
2021/05/22 09:04:04;;;;;;;4.40;1.20;;;23.40;49.30;;;;;;6356853;22;20422;-85
2021/05/22 09:06:30;;;;;;;3.37;1.43;;;23.40;49.00;;;;;;6354243;22;20444;-85
2021/05/22 09:09:01;;;;;;;3.43;1.20;;;23.40;49.00;;;;;;6356142;22;20840;-85
2021/05/22 09:11:31;;;;;;;3.43;1.00;;;23.40;48.80;;;;;;6353621;22;20237;-84
2021/05/22 09:13:57;;;;;;;2.03;1.00;;;23.40;48.70;;;;;;6354262;22;20379;-85
2021/05/22 09:16:35;;;;;;;2.73;1.03;;;23.30;48.50;;;;;;6353907;22;20386;-84
2021/05/22 09:19:02;;;;;;;2.60;1.10;;;23.40;48.40;;;;;;6355200;22;20871;-84
2021/05/22 09:21:34;;;;;;;2.97;1.20;;;23.30;48.30;;;;;;6355016;22;20379;-84
2021/05/22 09:24:01;;;;;;;3.50;1.10;;;23.30;48.10;;;;;;6332004;22;20508;-83
2021/05/22 09:26:33;;;;;;;3.80;1.30;;;23.30;48.10;;;;;;6360172;22;20383;-83
2021/05/22 09:29:01;;;;;;;4.63;1.13;;;23.30;48.10;;;;;;6358409;22;20439;-84
2021/05/22 09:31:28;;;;;;;1.80;1.00;;;23.30;48.40;;;;;;6357276;22;20382;-83
2021/05/22 09:34:03;;;;;;;4.13;1.20;;;23.30;48.10;;;;;;6358135;22;20387;-86
2021/05/22 09:36:30;;;;;;;5.20;1.20;;;23.40;48.20;;;;;;6359013;22;20357;-83
2021/05/22 09:38:56;;;;;;;4.93;1.10;;;23.30;48.10;;;;;;6357379;22;20371;-86
2021/05/22 09:41:33;;;;;;;3.83;1.87;;;23.30;48.00;;;;;;6356156;22;20379;-85
2021/05/22 09:44:09;;;;;;;5.07;1.47;;;23.30;47.90;;;;;;6357976;22;20470;-84
2021/05/22 09:46:47;;;;;;;11.03;1.77;;;23.30;47.90;;;;;;6358189;22;20464;-83
2021/05/22 09:49:32;;;;;;;2.77;1.40;;;23.30;47.80;;;;;;6358790;22;20367;-83
2021/05/22 09:52:08;;;;;;;7.13;1.57;;;23.30;47.80;;;;;;6360457;22;20418;-83
2021/05/22 09:54:51;;;;;;;10.07;1.90;;;23.20;47.70;;;;;;6359272;22;20381;-82
2021/05/22 09:57:53;;;;;;;3.87;1.37;;;23.30;47.80;;;;;;6333197;22;20370;-82
2021/05/22 10:00:21;;;;;;;5.20;1.67;;;23.20;47.70;;;;;;6358687;22;20370;-83
2021/05/22 10:02:51;;;;;;;4.90;1.40;;;23.20;47.80;;;;;;6356932;22;20422;-83
2021/05/22 10:05:25;;;;;;;3.53;1.47;;;23.30;47.90;;;;;;6359914;22;20366;-83
2021/05/22 10:07:53;;;;;;;3.97;1.77;;;23.20;47.90;;;;;;6360091;22;20355;-83
2021/05/22 10:10:20;;;;;;;2.53;1.10;;;23.20;48.00;;;;;;6331609;22;20371;-83
2021/05/22 10:12:46;;;;;;;5.53;1.27;;;23.20;48.00;;;;;;6358986;22;20382;-83
2021/05/22 10:15:29;;;;;;;2.60;1.20;;;23.30;48.10;;;;;;6360028;22;20355;-84
2021/05/22 10:17:58;;;;;;;5.40;1.40;;;23.30;48.20;;;;;;6358189;22;20379;-82
2021/05/22 10:20:48;;;;;;;1.80;1.00;;;23.20;48.20;;;;;;6331996;22;20374;-83
2021/05/22 10:23:17;;;;;;;2.30;0.97;;;23.30;48.20;;;;;;6319717;22;20444;-83
2021/05/22 10:25:43;;;;;;;2.70;1.20;;;23.30;48.30;;;;;;6358173;22;20469;-83
2021/05/22 10:28:11;;;;;;;4.67;1.40;;;23.30;48.30;;;;;;6359592;22;20370;-84
2021/05/22 10:30:39;;;;;;;2.33;1.10;;;23.30;48.30;;;;;;6358530;22;20374;-81
2021/05/22 10:33:11;;;;;;;2.97;0.90;;;23.30;48.40;;;;;;6356560;22;20442;-83
2021/05/22 10:36:05;;;;;;;2.30;1.90;;;23.30;48.40;;;;;;6357003;22;20400;-82
2021/05/22 10:38:34;;;;;;;1.90;1.20;;;23.30;48.40;;;;;;6356496;22;20385;-82
2021/05/22 10:41:08;;;;;;;3.30;1.27;;;23.30;48.50;;;;;;6356035;22;20492;-81
2021/05/22 10:44:02;;;;;;;2.40;1.00;;;23.30;48.50;;;;;;6356676;22;20418;-82
2021/05/22 10:46:29;;;;;;;2.40;1.40;;;23.30;48.50;;;;;;6337263;22;20363;-84
2021/05/22 10:48:59;;;;;;;2.93;1.10;;;23.30;48.50;;;;;;6358481;22;20855;-82
2021/05/22 10:51:36;;;;;;;3.20;1.30;;;23.30;48.50;;;;;;6357144;22;20414;-82
2021/05/22 10:54:10;;;;;;;3.50;1.10;;;23.30;48.50;;;;;;6358329;22;20365;-82
2021/05/22 10:57:03;;;;;;;2.30;1.30;;;23.30;48.50;;;;;;6356612;22;20520;-82
2021/05/22 10:59:33;;;;;;;3.73;1.00;;;23.40;48.60;;;;;;6330799;22;20618;-82
2021/05/22 11:02:00;;;;;;;5.20;1.17;;;23.30;48.60;;;;;;6357111;22;20386;-82
2021/05/22 11:04:30;;;;;;;2.50;1.30;;;23.30;48.60;;;;;;6357252;22;20382;-82
2021/05/22 11:06:59;;;;;;;3.57;1.10;;;23.40;48.70;;;;;;6358926;22;20711;-83
2021/05/22 11:09:29;;;;;;;1.67;1.10;;;23.40;48.70;;;;;;6358929;22;20374;-83
2021/05/22 11:12:00;;;;;;;2.13;1.50;;;23.40;48.70;;;;;;6359266;22;20395;-82
2021/05/22 11:14:43;;;;;;;2.07;1.33;;;23.40;48.70;;;;;;6360271;22;20383;-83
2021/05/22 11:17:27;;;;;;;2.27;1.00;;;23.40;48.70;;;;;;6360263;22;20446;-82
2021/05/22 11:22:26;;;;;;;2.20;1.10;;;23.40;48.70;;;;;;6360512;22;20414;-83
2021/05/22 11:25:09;;;;;;;2.20;0.77;;;23.30;48.60;;;;;;6359508;22;20394;-82
2021/05/22 11:27:56;;;;;;;2.07;1.13;;;23.40;48.70;;;;;;6360921;22;20375;-83
2021/05/22 11:30:33;;;;;;;2.30;1.10;;;23.40;48.70;;;;;;6359444;22;20379;-83
2021/05/22 11:33:06;;;;;;;3.23;1.00;;;23.30;48.70;;;;;;6333887;22;20568;-83
2021/05/22 11:35:34;;;;;;;3.53;1.23;;;23.30;48.70;;;;;;6360317;22;20398;-83
2021/05/22 11:38:18;;;;;;;1.80;1.03;;;23.30;48.70;;;;;;6359057;22;20378;-84
2021/05/22 11:40:44;;;;;;;5.93;1.50;;;23.40;48.80;;;;;;6357976;22;20381;-82
2021/05/22 11:43:20;;;;;;;1.97;1.10;;;23.30;48.70;;;;;;6329726;22;20422;-83
2021/05/22 11:45:50;;;;;;;2.53;0.90;;;23.30;48.70;;;;;;6357369;22;20374;-83
2021/05/22 11:48:31;;;;;;;3.23;1.20;;;23.30;48.70;;;;;;6358815;22;20369;-83
2021/05/22 11:51:16;;;;;;;1.40;0.70;;;23.30;48.80;;;;;;6358291;22;20374;-83
2021/05/22 11:53:47;;;;;;;2.87;1.13;;;23.30;48.80;;;;;;6360609;22;20363;-82
2021/05/22 11:56:17;;;;;;;1.53;1.03;;;23.30;48.80;;;;;;6360438;22;20385;-82
2021/05/22 11:58:48;;;;;;;1.73;0.80;;;23.30;48.80;;;;;;6359205;22;20378;-82
2021/05/22 12:01:23;;;;;;;2.90;1.23;;;23.30;48.80;;;;;;6358767;22;20389;-82
2021/05/22 12:04:00;;;;;;;1.60;0.93;;;23.30;48.80;;;;;;6331335;22;20428;-82
2021/05/22 12:06:35;;;;;;;1.60;0.90;;;23.30;48.80;;;;;;6357991;22;20381;-82
2021/05/22 12:09:17;;;;;;;1.70;1.00;;;23.30;48.80;;;;;;6357394;22;20374;-81
2021/05/22 12:12:01;;;;;;;1.27;0.90;;;23.30;48.80;;;;;;6358673;22;20379;-82
2021/05/22 12:14:43;;;;;;;2.40;1.10;;;23.30;48.80;;;;;;6358265;22;20374;-82
2021/05/22 12:17:12;;;;;;;1.50;0.97;;;23.30;48.80;;;;;;6357889;22;20428;-82
2021/05/22 12:19:40;;;;;;;4.13;1.30;;;23.30;48.90;;;;;;6358103;22;20400;-82
2021/05/22 12:22:06;;;;;;;2.20;0.93;;;23.30;48.90;;;;;;6357406;22;20374;-82
2021/05/22 12:24:36;;;;;;;1.13;0.97;;;23.30;48.90;;;;;;6360185;22;20366;-83
2021/05/22 12:27:05;;;;;;;1.77;0.87;;;23.30;48.90;;;;;;6362436;22;20351;-83
2021/05/22 12:29:32;;;;;;;2.00;1.07;;;23.30;48.90;;;;;;6362467;22;20390;-83
2021/05/22 12:32:12;;;;;;;2.03;0.87;;;23.30;48.90;;;;;;6361821;22;20373;-83
2021/05/22 12:34:38;;;;;;;2.23;1.00;;;23.30;48.90;;;;;;6361151;22;20354;-82
2021/05/22 12:37:07;;;;;;;1.37;0.70;;;23.30;48.90;;;;;;6360969;22;20430;-82
2021/05/22 12:39:43;;;;;;;4.00;1.43;;;23.30;48.90;;;;;;6362062;22;20367;-82
2021/05/22 12:42:20;;;;;;;2.80;1.10;;;23.30;48.90;;;;;;6335508;22;20382;-82
2021/05/22 12:44:52;;;;;;;2.20;0.90;;;23.30;48.90;;;;;;6359484;22;20374;-84
2021/05/22 12:47:21;;;;;;;2.50;0.90;;;23.30;48.90;;;;;;6359962;22;20390;-83
2021/05/22 12:49:52;;;;;;;2.13;0.90;;;23.30;49.00;;;;;;6357698;22;20370;-82
2021/05/22 12:52:17;;;;;;;1.67;0.80;;;23.30;48.90;;;;;;6359942;22;20381;-82
2021/05/22 12:54:47;;;;;;;1.60;0.80;;;23.30;48.90;;;;;;6359052;22;20378;-82
2021/05/22 12:57:21;;;;;;;3.23;1.07;;;23.30;48.80;;;;;;6358603;22;20153;-82
2021/05/22 12:59:53;;;;;;;2.03;1.20;;;23.30;48.80;;;;;;6358840;22;20390;-83
2021/05/22 13:02:27;;;;;;;1.73;0.90;;;23.30;48.60;;;;;;6357030;22;20436;-82
2021/05/22 13:04:57;;;;;;;2.33;0.90;;;23.30;48.40;;;;;;6359002;22;20370;-84
2021/05/22 13:07:27;;;;;;;3.10;1.20;;;23.30;48.10;;;;;;6333680;22;20397;-83
2021/05/22 13:10:06;;;;;;;1.50;1.00;;;23.30;47.90;;;;;;6359518;22;20378;-84
2021/05/22 13:12:38;;;;;;;3.00;0.70;;;23.30;47.60;;;;;;6360062;22;20405;-83
2021/05/22 13:15:14;;;;;;;3.17;1.30;;;23.20;47.20;;;;;;6359964;22;20367;-84
2021/05/22 13:18:02;;;;;;;3.10;1.10;;;23.30;47.40;;;;;;6334250;22;20379;-83
2021/05/22 13:20:32;;;;;;;2.07;1.10;;;23.20;47.20;;;;;;6360394;22;20375;-83
2021/05/22 13:23:36;;;;;;;1.73;0.90;;;23.20;46.80;;;;;;6359596;22;20426;-83
2021/05/22 13:26:04;;;;;;;1.40;1.00;;;23.20;47.00;;;;;;6208826;23;20381;-83
2021/05/22 13:28:34;;;;;;;2.83;1.50;;;23.10;47.00;;;;;;6234977;23;20417;-83
2021/05/22 13:31:03;;;;;;;3.83;1.87;;;23.10;47.00;;;;;;6235554;23;20379;-83
2021/05/22 13:33:39;;;;;;;2.67;1.53;;;23.30;47.20;;;;;;6235483;23;20382;-83
2021/05/22 13:36:06;;;;;;;3.70;2.27;;;23.10;47.10;;;;;;6235208;23;20404;-83
2021/05/22 13:38:41;;;;;;;3.67;2.20;;;23.20;47.30;;;;;;6235019;23;20406;-83
2021/05/22 13:41:08;;;;;;;2.90;2.00;;;23.20;47.40;;;;;;6234696;23;20466;-83
2021/05/22 13:43:42;;;;;;;5.70;2.53;;;23.10;47.50;;;;;;6235047;23;20521;-83
2021/05/22 13:46:08;;;;;;;8.13;2.37;;;23.10;48.10;;;;;;6235047;23;20420;-83
2021/05/22 13:48:39;;;;;;;5.27;2.17;;;23.10;47.70;;;;;;6233984;23;20402;-82
2021/05/22 13:51:05;;;;;;;3.27;2.10;;;23.10;47.80;;;;;;6233566;23;20177;-83
2021/05/22 13:54:21;;;;;;;5.53;2.60;;;23.10;47.80;;;;;;6232356;23;20876;-83
2021/05/22 13:56:47;;;;;;;5.63;3.13;;;23.00;47.80;;;;;;6232674;23;20155;-83
2021/05/22 13:59:13;;;;;;;6.00;2.53;;;23.10;48.00;;;;;;6232922;23;20385;-83
2021/05/22 14:01:41;;;;;;;4.07;2.30;;;23.10;48.00;;;;;;6238333;22;20407;-83
2021/05/22 14:04:11;;;;;;;6.00;2.17;;;23.10;48.10;;;;;;6331903;22;20422;-83
2021/05/22 14:06:37;;;;;;;4.20;2.03;;;23.10;48.10;;;;;;6332365;22;20371;-83
2021/05/22 14:09:08;;;;;;;6.07;2.67;;;23.10;48.10;;;;;;6359478;22;20401;-83
2021/05/22 14:11:34;;;;;;;7.20;2.73;;;23.10;48.10;;;;;;6359563;22;20151;-84
2021/05/22 14:14:01;;;;;;;6.40;2.07;;;23.10;48.20;;;;;;6331311;22;20385;-84
2021/05/22 14:16:27;;;;;;;5.37;2.30;;;23.10;48.20;;;;;;6332666;22;20387;-83
2021/05/22 14:18:53;;;;;;;2.50;1.93;;;23.10;48.20;;;;;;6326281;22;20379;-83
2021/05/22 14:21:19;;;;;;;7.40;2.20;;;23.10;48.20;;;;;;6326520;22;20390;-84
2021/05/22 14:23:45;;;;;;;3.77;2.07;;;23.10;48.20;;;;;;6274768;22;20480;-83
2021/05/22 14:26:12;;;;;;;2.80;1.63;;;23.10;48.20;;;;;;6327999;22;20387;-84
2021/05/22 14:28:44;;;;;;;3.57;2.13;;;23.10;48.20;;;;;;6327918;22;20367;-84
2021/05/22 14:31:13;;;;;;;4.03;2.03;;;23.10;48.20;;;;;;6302400;22;20442;-83
2021/05/22 14:33:38;;;;;;;6.37;2.27;;;23.20;48.30;;;;;;6326811;22;20379;-84
2021/05/22 14:36:05;;;;;;;4.87;1.83;;;23.10;48.30;;;;;;6326796;22;20383;-83
2021/05/22 14:38:34;;;;;;;2.90;2.23;;;23.10;48.30;;;;;;6328522;22;20451;-83
2021/05/22 14:41:00;;;;;;;3.90;2.10;;;23.10;48.30;;;;;;6326695;22;20415;-82
2021/05/22 14:43:28;;;;;;;3.27;1.83;;;23.10;48.30;;;;;;6299963;22;20422;-83
2021/05/22 14:45:57;;;;;;;3.53;2.10;;;23.10;48.30;;;;;;6325879;22;20155;-82
2021/05/22 14:48:23;;;;;;;4.90;2.23;;;23.10;48.40;;;;;;6326789;22;20432;-82
2021/05/22 14:50:52;;;;;;;4.60;1.97;;;23.10;48.40;;;;;;6329171;22;20367;-82
2021/05/22 14:53:26;;;;;;;4.57;2.17;;;23.10;48.40;;;;;;6329309;22;20152;-82
2021/05/22 14:55:52;;;;;;;4.40;2.10;;;23.10;48.40;;;;;;6328607;22;20383;-82
2021/05/22 14:58:21;;;;;;;3.40;2.07;;;23.10;48.50;;;;;;6328053;22;20395;-82
2021/05/22 15:00:51;;;;;;;1.97;1.30;;;23.00;48.40;;;;;;6327925;22;20148;-83
2021/05/22 15:03:17;;;;;;;3.97;2.00;;;23.10;48.50;;;;;;6301456;22;20419;-83
2021/05/22 15:05:44;;;;;;;4.87;1.80;;;23.10;48.50;;;;;;6327498;22;20383;-82
2021/05/22 15:08:15;;;;;;;2.63;1.60;;;23.10;48.50;;;;;;6302567;22;20153;-82
2021/05/22 15:10:45;;;;;;;3.17;1.60;;;23.10;48.50;;;;;;6329325;22;20424;-83
2021/05/22 15:13:11;;;;;;;2.57;1.80;;;23.10;48.50;;;;;;6329240;22;20363;-82
2021/05/22 15:15:37;;;;;;;4.43;2.00;;;23.00;48.50;;;;;;6329268;22;20378;-83
2021/05/22 15:18:03;;;;;;;4.00;2.10;;;23.00;48.50;;;;;;6326427;22;20478;-84
2021/05/22 15:20:33;;;;;;;4.37;2.20;;;23.00;48.40;;;;;;6300279;22;20395;-83
2021/05/22 15:22:58;;;;;;;2.17;1.60;;;23.10;48.50;;;;;;6301135;22;20502;-83
2021/05/22 15:25:31;;;;;;;3.33;1.80;;;23.00;48.50;;;;;;6327604;22;20395;-83
2021/05/22 15:28:00;;;;;;;3.20;1.63;;;23.00;48.60;;;;;;6325739;22;20387;-83
2021/05/22 15:30:29;;;;;;;4.43;1.87;;;23.00;48.50;;;;;;6300475;22;20463;-83
2021/05/22 15:32:56;;;;;;;2.27;1.50;;;23.00;48.50;;;;;;6327462;22;20364;-83
2021/05/22 15:35:27;;;;;;;3.00;1.47;;;23.00;48.50;;;;;;6325341;22;20380;-83
2021/05/22 15:37:54;;;;;;;2.97;1.83;;;23.00;48.60;;;;;;6327098;22;20402;-83
2021/05/22 15:40:21;;;;;;;4.93;1.60;;;23.00;49.10;;;;;;6300973;22;20375;-83
2021/05/22 15:42:48;;;;;;;3.57;1.50;;;23.00;48.60;;;;;;6325951;22;20423;-83
2021/05/22 15:45:23;;;;;;;2.80;1.50;;;23.00;49.10;;;;;;6325814;22;20372;-83
2021/05/22 15:58:57;;;;;;;6.67;1.80;;;23.10;48.50;;;;;;6244742;22;20383;-85
2021/05/22 16:01:38;;;;;;;2.90;1.53;;;22.90;48.90;;;;;;6268700;22;20384;-84
2021/05/22 16:06:50;;;;;;;2.50;1.80;;;23.00;49.00;;;;;;6268383;22;20396;-82
2021/05/22 16:09:23;;;;;;;2.10;1.67;;;22.90;48.40;;;;;;6294089;22;20459;-83
2021/05/22 16:15:14;;;;;;;;;;;;;;;;;;;;;
2021/05/22 16:17:57;;;;;;;;;;;;;;;;;;;;;
2021/05/22 16:23:56;;;;;;;4.77;1.70;;;23.00;48.50;;;;;;6172850;23;20443;-83
2021/05/22 16:26:34;;;;;;;2.90;1.20;;;22.90;48.50;;;;;;6164252;23;20400;-83
2021/05/22 16:29:00;;;;;;;2.37;1.77;;;22.90;48.50;;;;;;6146390;23;20387;-83
2021/05/22 16:31:32;;;;;;;3.20;1.63;;;22.90;48.60;;;;;;6179726;23;20375;-82
2021/05/22 16:34:07;;;;;;;2.03;1.40;;;22.90;48.60;;;;;;6178933;23;20405;-83
2021/05/22 16:37:36;;;;;;;2.00;1.40;;;23.00;48.70;;;;;;6115182;23;20393;-91
2021/05/22 16:40:18;;;;;;;4.27;1.70;;;22.90;48.50;;;;;;6112053;23;20469;-89
2021/05/22 16:42:44;;;;;;;3.20;1.60;;;22.90;48.50;;;;;;6092985;23;20426;-83
2021/05/22 16:45:15;;;;;;;3.20;1.47;;;22.90;48.50;;;;;;6116118;23;20402;-83
2021/05/22 16:47:46;;;;;;;4.10;1.57;;;22.90;48.50;;;;;;6115675;23;20457;-83
2021/05/22 16:50:17;;;;;;;2.60;1.57;;;22.90;48.50;;;;;;6091298;23;20390;-83
2021/05/22 16:52:46;;;;;;;1.77;1.37;;;22.80;48.40;;;;;;6116165;23;20382;-83
2021/05/22 16:55:17;;;;;;;5.13;1.33;;;22.90;48.50;;;;;;6115653;23;20408;-83
2021/05/22 16:57:44;;;;;;;2.10;1.47;;;22.90;48.60;;;;;;6115526;23;20384;-84
2021/05/22 17:00:16;;;;;;;4.80;1.80;;;22.90;48.60;;;;;;6115510;23;20397;-83
2021/05/22 17:02:45;;;;;;;2.53;1.50;;;22.90;48.60;;;;;;6115958;23;20417;-83
2021/05/22 17:05:17;;;;;;;3.10;2.00;;;22.90;48.70;;;;;;6115797;23;20449;-84
2021/05/22 17:07:52;;;;;;;2.60;1.67;;;22.90;48.60;;;;;;6116606;23;20386;-82
2021/05/22 17:10:18;;;;;;;4.10;1.60;;;22.90;48.60;;;;;;6151242;23;20498;-87
2021/05/22 17:19:11;;;;;;;4.90;1.80;;;22.90;48.70;;;;;;6327709;22;20399;-82
2021/05/22 17:21:37;;;;;;;2.53;1.43;;;22.80;48.80;;;;;;6328693;22;20376;-82
2021/05/22 17:24:03;;;;;;;4.23;1.80;;;22.80;48.80;;;;;;6300691;22;20418;-82
2021/05/22 17:26:32;;;;;;;3.20;1.67;;;22.80;48.80;;;;;;6327757;22;20168;-82
2021/05/22 17:29:01;;;;;;;3.63;1.90;;;22.80;48.80;;;;;;6300948;22;20383;-82
2021/05/22 17:31:27;;;;;;;2.10;1.13;;;22.80;48.90;;;;;;6301306;22;20410;-82
2021/05/22 17:33:52;;;;;;;3.90;2.00;;;22.80;48.90;;;;;;6326386;22;20388;-82
2021/05/22 17:36:18;;;;;;;2.53;1.40;;;22.80;48.90;;;;;;6327929;22;20217;-81
2021/05/22 17:38:44;;;;;;;2.40;1.70;;;22.80;48.90;;;;;;6328251;22;20137;-82
2021/05/22 17:41:13;;;;;;;2.77;1.40;;;22.80;48.90;;;;;;6328406;22;20152;-82
2021/05/22 17:43:43;;;;;;;4.10;1.80;;;22.80;48.90;;;;;;6300759;22;20185;-83
2021/05/22 17:46:14;;;;;;;5.03;2.07;;;22.90;49.00;;;;;;6328093;22;20348;-87
2021/05/22 17:48:40;;;;;;;3.90;2.07;;;22.80;49.00;;;;;;6328795;22;20363;-83
2021/05/22 17:51:21;;;;;;;3.20;1.57;;;22.80;49.00;;;;;;6301638;22;20413;-88
2021/05/22 17:53:47;;;;;;;2.90;1.40;;;22.80;49.00;;;;;;6330046;22;20164;-82
2021/05/22 17:56:13;;;;;;;2.30;1.57;;;22.80;49.00;;;;;;6327896;22;20693;-82
2021/05/22 17:58:42;;;;;;;6.60;2.30;;;22.80;49.00;;;;;;6301789;22;20445;-81
2021/05/22 18:01:08;;;;;;;3.17;1.67;;;22.80;49.00;;;;;;6328120;22;20149;-82
2021/05/22 18:03:34;;;;;;;2.93;1.27;;;22.80;49.10;;;;;;6325866;22;20422;-82
2021/05/22 18:06:04;;;;;;;2.87;1.43;;;22.80;49.70;;;;;;6296758;22;20231;-82
2021/05/22 18:08:42;;;;;;;2.60;1.50;;;22.80;49.10;;;;;;6327500;22;20394;-83
2021/05/22 18:11:09;;;;;;;8.30;2.07;;;22.80;49.20;;;;;;6327899;22;20375;-82
2021/05/22 18:13:41;;;;;;;4.10;1.73;;;22.80;49.30;;;;;;6325876;22;20382;-82
2021/05/22 18:16:08;;;;;;;5.23;1.80;;;22.80;49.30;;;;;;6300792;22;20141;-82
2021/05/22 18:18:42;;;;;;;5.03;1.77;;;22.80;49.30;;;;;;6299132;22;20384;-83
2021/05/22 18:21:18;;;;;;;5.03;2.13;;;22.80;49.30;;;;;;6325193;22;20390;-82
2021/05/22 18:23:43;;;;;;;3.60;2.00;;;22.80;49.40;;;;;;6300566;22;20853;-82
2021/05/22 18:26:12;;;;;;;2.53;1.60;;;22.80;49.40;;;;;;6328978;22;20453;-82
2021/05/22 18:28:39;;;;;;;4.13;2.13;;;22.80;49.50;;;;;;6326381;22;20141;-85
2021/05/22 18:31:16;;;;;;;4.50;2.20;;;22.80;49.50;;;;;;6326120;22;20818;-84
2021/05/22 18:33:42;;;;;;;4.30;2.30;;;22.80;49.50;;;;;;6326683;22;20375;-84
2021/05/22 18:36:19;;;;;;;5.40;2.30;;;22.80;49.60;;;;;;6326032;22;20387;-84
2021/05/22 18:38:48;;;;;;;5.77;2.30;;;22.80;49.50;;;;;;6300637;22;20141;-83
2021/05/22 18:41:17;;;;;;;2.60;1.50;;;22.80;50.20;;;;;;6325446;22;20684;-84
2021/05/22 18:43:43;;;;;;;6.10;2.07;;;22.80;49.70;;;;;;6325704;22;20410;-83
2021/05/22 18:46:12;;;;;;;5.90;1.97;;;22.80;49.70;;;;;;6299712;22;20383;-90
2021/05/22 18:48:38;;;;;;;5.43;2.03;;;22.80;49.80;;;;;;6326752;22;20379;-83
2021/05/22 18:51:04;;;;;;;5.23;2.47;;;22.70;49.70;;;;;;6326535;22;20379;-83
2021/05/22 18:53:34;;;;;;;4.20;2.30;;;22.70;49.80;;;;;;6299341;22;20375;-82
2021/05/22 18:56:10;;;;;;;3.40;2.20;;;22.70;49.80;;;;;;6327074;22;20387;-84
2021/05/22 18:58:36;;;;;;;5.40;2.23;;;22.80;49.80;;;;;;6326344;22;20383;-82
2021/05/22 19:01:05;;;;;;;3.83;1.67;;;22.80;49.80;;;;;;6326328;22;20388;-84
2021/05/22 19:03:38;;;;;;;4.17;2.00;;;22.70;49.70;;;;;;6327225;22;20168;-82
2021/05/22 19:06:07;;;;;;;2.20;1.60;;;22.80;49.80;;;;;;6327141;22;20378;-82
2021/05/22 19:08:38;;;;;;;6.03;2.60;;;22.80;49.70;;;;;;6326372;22;20379;-82
2021/05/22 19:11:06;;;;;;;4.70;1.70;;;22.80;49.70;;;;;;6327838;22;20474;-82
2021/05/22 19:13:32;;;;;;;4.87;2.73;;;22.80;49.70;;;;;;6300800;22;20451;-81
2021/05/22 19:15:58;;;;;;;4.53;2.30;;;22.80;49.70;;;;;;6328527;22;20865;-81
2021/05/22 19:18:26;;;;;;;4.17;2.00;;;22.80;49.70;;;;;;6302279;22;20380;-81
2021/05/22 19:20:52;;;;;;;5.47;2.10;;;22.80;49.80;;;;;;6328698;22;20458;-82
2021/05/22 19:23:18;;;;;;;9.40;2.60;;;22.80;49.80;;;;;;6329105;22;20426;-82
2021/05/22 19:26:21;;;;;;;3.93;2.00;;;22.80;49.80;;;;;;6329898;22;20810;-81
2021/05/22 19:28:48;;;;;;;2.60;1.80;;;22.80;49.70;;;;;;6330152;22;20164;-81
2021/05/22 19:31:16;;;;;;;3.40;1.90;;;22.80;49.70;;;;;;6302928;22;20374;-81
2021/05/22 19:33:42;;;;;;;3.70;1.70;;;22.80;49.70;;;;;;6329993;22;20153;-81
2021/05/22 19:36:11;;;;;;;2.90;1.80;;;22.80;49.60;;;;;;6330386;22;20396;-81
2021/05/22 19:38:37;;;;;;;5.97;1.97;;;22.70;49.50;;;;;;6302321;22;20177;-81
2021/05/22 19:41:09;;;;;;;3.83;1.60;;;22.80;49.50;;;;;;6302604;22;20413;-81
2021/05/22 19:43:35;;;;;;;3.63;1.93;;;22.80;49.40;;;;;;6330011;22;20391;-81
2021/05/22 19:46:04;;;;;;;4.53;2.10;;;22.80;49.50;;;;;;6302243;22;20387;-82
2021/05/22 19:48:30;;;;;;;4.27;1.67;;;22.90;49.50;;;;;;6329048;22;20137;-82
2021/05/22 19:50:56;;;;;;;3.17;1.90;;;22.90;49.50;;;;;;6327636;22;20459;-81
2021/05/22 19:53:21;;;;;;;3.43;1.90;;;22.90;49.40;;;;;;6300989;22;20179;-81
2021/05/22 19:55:47;;;;;;;3.73;1.67;;;22.90;49.40;;;;;;6301458;22;20157;-81
2021/05/22 19:58:16;;;;;;;2.80;1.43;;;22.90;49.30;;;;;;6301630;22;20212;-81
2021/05/22 20:00:42;;;;;;;5.27;2.03;;;22.90;49.30;;;;;;6294224;22;20177;-82
2021/05/22 20:03:09;;;;;;;2.80;2.17;;;22.90;49.30;;;;;;6300328;22;20434;-82
2021/05/22 20:05:35;;;;;;;3.67;2.03;;;23.00;49.40;;;;;;6327211;22;20399;-82
2021/05/22 20:08:01;;;;;;;4.10;1.90;;;22.90;49.30;;;;;;6330782;22;20421;-82
2021/05/22 20:10:28;;;;;;;5.13;1.73;;;23.00;49.40;;;;;;6302339;22;20156;-82
2021/05/22 20:12:55;;;;;;;2.57;1.67;;;23.10;49.40;;;;;;6327586;22;20701;-82
2021/05/22 20:15:24;;;;;;;3.27;1.70;;;23.00;49.40;;;;;;6326393;22;20441;-82
2021/05/22 20:17:50;;;;;;;3.63;2.00;;;23.00;49.40;;;;;;6327065;22;20375;-81
2021/05/22 20:20:17;;;;;;;3.70;1.70;;;23.00;49.40;;;;;;6326865;22;20388;-81
2021/05/22 20:22:43;;;;;;;4.67;2.20;;;23.00;49.30;;;;;;6300408;22;20176;-81
2021/05/22 20:25:11;;;;;;;3.47;1.60;;;23.00;49.30;;;;;;6299243;22;20401;-81
2021/05/22 20:27:36;;;;;;;5.30;1.60;;;23.00;49.30;;;;;;6325675;22;20148;-82
2021/05/22 20:30:05;;;;;;;2.10;1.40;;;23.00;49.90;;;;;;6326785;22;20443;-81
2021/05/22 20:32:31;;;;;;;2.87;1.30;;;23.00;49.30;;;;;;6327440;22;20145;-82
2021/05/22 20:35:23;;;;;;;4.37;1.80;;;23.00;49.40;;;;;;6326081;22;20401;-88
2021/05/22 20:38:08;;;;;;;3.40;1.63;;;23.00;49.30;;;;;;6324649;22;20510;-82
2021/05/22 20:40:33;;;;;;;4.90;2.17;;;23.00;49.40;;;;;;6327785;22;20371;-81
2021/05/22 20:42:59;;;;;;;2.90;1.77;;;23.00;49.40;;;;;;6326406;22;20423;-81
2021/05/22 20:45:30;;;;;;;3.80;2.23;;;23.00;49.50;;;;;;6326606;22;20153;-83
2021/05/22 20:47:58;;;;;;;3.90;1.90;;;23.00;49.40;;;;;;6301404;22;20209;-83
2021/05/22 20:50:27;;;;;;;2.83;2.00;;;23.10;49.50;;;;;;6328291;22;20435;-81
2021/05/22 20:52:55;;;;;;;2.13;1.60;;;23.00;49.30;;;;;;6301353;22;20376;-84